X  Sluiten METAR luchtvaart weer gegevens      EHRD Rotterdam The Hague Airport
Temperatuur
18°C Temperatuur
12°C Dauwpunt
68% Vochtigheid



Wind
10 KM/U
6 MPH
3 M/S
5 KTS



300°
WNW
Huidig weer

Helder Helder
Luchtdruk 1013.92 (hPa) - 29.94 (inHg)
Zicht 6.2 (mijl) - 10 (km)
Vliegveld
Vliegveld code EHRD

Locatie : Rotterdam The Hague Airport
Afstand: 16 (km)

Metar:
EHRD 150925Z AUTO 30005KT 250V350 9999 NSC 18/12 Q1014 NOSIG

Tijd: 15-07-2020 11:25 CEST